Time;durP1;ratioP1;P1;durP2;ratioP2;P2;SDS_P1;SDS_P2;PMS_P1;PMS_P2;Temp;Humidity;BMP_temperature;BMP_pressure;BME280_temperature;BME280_humidity;BME280_pressure;Samples;Min_cycle;Max_cycle;Signal;HPM_P1;HPM_P2
2023/06/05 00:00:39;;;;;;;0.20;0.20;;;;;;;;;;5097011;28;20082;-47
2023/06/05 00:03:04;;;;;;;0.20;0.20;;;;;;;;;;5096946;28;20392;-47
2023/06/05 00:05:31;;;;;;;0.20;0.20;;;;;;;;;;5096139;28;20104;-46
2023/06/05 00:07:56;;;;;;;0.20;0.20;;;;;;;;;;5096716;28;20074;-46
2023/06/05 00:10:22;;;;;;;0.20;0.20;;;;;;;;;;5096919;28;20418;-47
2023/06/05 00:12:48;;;;;;;0.20;0.20;;;;;;;;;;5096574;28;20047;-47
2023/06/05 00:15:13;;;;;;;0.20;0.20;;;;;;;;;;5096339;28;20478;-46
2023/06/05 00:17:39;;;;;;;0.20;0.20;;;;;;;;;;5078499;28;20044;-47
2023/06/05 00:20:05;;;;;;;0.20;0.20;;;;;;;;;;5096748;28;20529;-48
2023/06/05 00:22:33;;;;;;;0.20;0.20;;;;;;;;;;5102122;27;20055;-48
2023/06/05 00:24:59;;;;;;;0.20;0.20;;;;;;;;;;5134955;27;20050;-47
2023/06/05 00:27:25;;;;;;;0.20;0.20;;;;;;;;;;5137694;27;20442;-47
2023/06/05 00:29:50;;;;;;;0.20;0.20;;;;;;;;;;5121295;27;20044;-47
2023/06/05 00:32:16;;;;;;;0.20;0.20;;;;;;;;;;5096587;28;20052;-47
2023/06/05 00:34:42;;;;;;;0.20;0.20;;;;;;;;;;5096641;28;20489;-47
2023/06/05 00:37:07;;;;;;;0.10;0.10;;;;;;;;;;5095938;28;20048;-48
2023/06/05 00:39:33;;;;;;;0.20;0.20;;;;;;;;;;5096660;28;20427;-47
2023/06/05 00:41:58;;;;;;;0.20;0.20;;;;;;;;;;5096213;28;20040;-48
2023/06/05 00:44:24;;;;;;;0.20;0.20;;;;;;;;;;5078030;28;20052;-46
2023/06/05 00:46:51;;;;;;;0.20;0.20;;;;;;;;;;5096669;28;20933;-46
2023/06/05 00:49:17;;;;;;;0.20;0.20;;;;;;;;;;5107053;28;20471;-47
2023/06/05 00:51:44;;;;;;;0.20;0.20;;;;;;;;;;5116797;28;20047;-47
2023/06/05 00:54:09;;;;;;;0.20;0.20;;;;;;;;;;5098527;28;20039;-47
2023/06/05 00:56:36;;;;;;;0.20;0.20;;;;;;;;;;5116777;28;20043;-48
2023/06/05 00:59:02;;;;;;;0.20;0.20;;;;;;;;;;5116780;28;20482;-47
2023/06/05 01:01:28;;;;;;;0.10;0.10;;;;;;;;;;5117184;28;20082;-46
2023/06/05 01:03:57;;;;;;;0.20;0.20;;;;;;;;;;5116756;28;20941;-48
2023/06/05 01:06:26;;;;;;;0.15;0.15;;;;;;;;;;5116475;28;20209;-46
2023/06/05 01:08:53;;;;;;;0.20;0.20;;;;;;;;;;5116215;28;20100;-48
2023/06/05 01:11:23;;;;;;;0.10;0.10;;;;;;;;;;5116719;28;20520;-47
2023/06/05 01:13:53;;;;;;;0.20;0.20;;;;;;;;;;5097609;28;20349;-47
2023/06/05 01:16:18;;;;;;;0.20;0.20;;;;;;;;;;5116200;27;20269;-47
2023/06/05 01:18:45;;;;;;;0.10;0.10;;;;;;;;;;5116571;28;20043;-46
2023/06/05 01:21:13;;;;;;;0.20;0.20;;;;;;;;;;5116596;28;20073;-46
2023/06/05 01:23:44;;;;;;;0.10;0.10;;;;;;;;;;5104479;27;20403;-47
2023/06/05 01:26:13;;;;;;;0.20;0.20;;;;;;;;;;5115856;28;20399;-47
2023/06/05 01:28:40;;;;;;;0.20;0.20;;;;;;;;;;5116245;28;20078;-46
2023/06/05 01:31:14;;;;;;;0.10;0.10;;;;;;;;;;5096117;28;20071;-47
2023/06/05 01:33:44;;;;;;;0.20;0.20;;;;;;;;;;5095049;28;20058;-47
2023/06/05 01:36:11;;;;;;;0.20;0.20;;;;;;;;;;5096031;28;20048;-49
2023/06/05 01:38:38;;;;;;;0.10;0.10;;;;;;;;;;5093770;28;20051;-47
2023/06/05 01:41:04;;;;;;;0.20;0.20;;;;;;;;;;5081509;28;20076;-48
2023/06/05 01:43:30;;;;;;;0.20;0.20;;;;;;;;;;5075575;28;20077;-47
2023/06/05 01:45:56;;;;;;;0.10;0.10;;;;;;;;;;5056917;28;20047;-47
2023/06/05 01:48:23;;;;;;;0.20;0.20;;;;;;;;;;5075495;28;20048;-48
2023/06/05 01:50:49;;;;;;;0.20;0.20;;;;;;;;;;5083190;28;20098;-47
2023/06/05 01:53:16;;;;;;;0.20;0.20;;;;;;;;;;5096304;28;20051;-48
2023/06/05 01:55:42;;;;;;;0.20;0.20;;;;;;;;;;5096053;28;20546;-47
2023/06/05 01:58:08;;;;;;;0.20;0.20;;;;;;;;;;5095602;28;20148;-48
2023/06/05 02:00:35;;;;;;;0.10;0.10;;;;;;;;;;5085614;28;20104;-46
2023/06/05 02:03:00;;;;;;;0.20;0.20;;;;;;;;;;5075243;28;20100;-47
2023/06/05 02:05:29;;;;;;;0.20;0.20;;;;;;;;;;5075118;28;20044;-48
2023/06/05 02:07:58;;;;;;;0.10;0.10;;;;;;;;;;5074918;28;20052;-47
2023/06/05 02:10:23;;;;;;;0.20;0.20;;;;;;;;;;5074645;28;20071;-46
2023/06/05 02:12:49;;;;;;;0.20;0.20;;;;;;;;;;5056698;28;20048;-48
2023/06/05 02:15:15;;;;;;;0.13;0.13;;;;;;;;;;5075556;28;20359;-48
2023/06/05 02:17:44;;;;;;;0.20;0.20;;;;;;;;;;5056256;28;20265;-48
2023/06/05 02:20:12;;;;;;;0.20;0.20;;;;;;;;;;5074291;28;20052;-48
2023/06/05 02:22:38;;;;;;;0.20;0.20;;;;;;;;;;5070693;28;20043;-47
2023/06/05 02:25:05;;;;;;;0.20;0.20;;;;;;;;;;5113771;28;20043;-46
2023/06/05 02:27:30;;;;;;;0.10;0.10;;;;;;;;;;5113203;27;20149;-47
2023/06/05 02:29:56;;;;;;;0.20;0.20;;;;;;;;;;5098062;28;20286;-47
2023/06/05 02:32:25;;;;;;;0.20;0.20;;;;;;;;;;5098043;28;20062;-47
2023/06/05 02:34:51;;;;;;;0.20;0.20;;;;;;;;;;5098847;28;20052;-47
2023/06/05 02:37:17;;;;;;;0.20;0.20;;;;;;;;;;5098402;28;20070;-52
2023/06/05 02:39:45;;;;;;;0.10;0.10;;;;;;;;;;5094707;28;20052;-48
2023/06/05 02:42:12;;;;;;;0.10;0.10;;;;;;;;;;5078720;28;20052;-48
2023/06/05 02:44:38;;;;;;;0.20;0.20;;;;;;;;;;5089357;28;20044;-52
2023/06/05 02:47:03;;;;;;;0.20;0.20;;;;;;;;;;5078474;28;20255;-51
2023/06/05 02:49:29;;;;;;;0.20;0.20;;;;;;;;;;5092153;28;20048;-50
2023/06/05 02:51:55;;;;;;;0.20;0.20;;;;;;;;;;5097990;28;20052;-49
2023/06/05 02:54:21;;;;;;;0.20;0.20;;;;;;;;;;5098111;28;20066;-51
2023/06/05 02:56:47;;;;;;;0.10;0.10;;;;;;;;;;5099170;28;20281;-51
2023/06/05 02:59:12;;;;;;;0.20;0.20;;;;;;;;;;5098281;28;20469;-51
2023/06/05 03:01:43;;;;;;;0.20;0.20;;;;;;;;;;5079083;28;20048;-49
2023/06/05 03:04:09;;;;;;;0.20;0.20;;;;;;;;;;5077889;28;20044;-50
2023/06/05 03:06:35;;;;;;;0.10;0.10;;;;;;;;;;5077528;28;20414;-48
2023/06/05 03:09:00;;;;;;;0.20;0.20;;;;;;;;;;5077196;28;20052;-51
2023/06/05 03:11:26;;;;;;;0.20;0.20;;;;;;;;;;5094234;28;20047;-49
2023/06/05 03:13:51;;;;;;;0.10;0.10;;;;;;;;;;5097293;28;20377;-49
2023/06/05 03:16:17;;;;;;;0.20;0.20;;;;;;;;;;5097539;28;20138;-49
2023/06/05 03:18:43;;;;;;;0.20;0.20;;;;;;;;;;5079730;28;20043;-52
2023/06/05 03:21:10;;;;;;;0.20;0.20;;;;;;;;;;5096675;28;20135;-50
2023/06/05 03:23:35;;;;;;;0.17;0.17;;;;;;;;;;5082937;28;20055;-51
2023/06/05 03:26:02;;;;;;;0.20;0.20;;;;;;;;;;5076842;28;20379;-50
2023/06/05 03:28:30;;;;;;;0.20;0.20;;;;;;;;;;5077600;28;20056;-48
2023/06/05 03:30:55;;;;;;;0.10;0.10;;;;;;;;;;5089804;28;20078;-48
2023/06/05 03:33:21;;;;;;;0.20;0.20;;;;;;;;;;5097470;28;20048;-51
2023/06/05 03:35:46;;;;;;;0.20;0.20;;;;;;;;;;5097044;28;20403;-50
2023/06/05 03:38:12;;;;;;;0.10;0.10;;;;;;;;;;5097006;28;20048;-48
2023/06/05 03:40:39;;;;;;;0.20;0.20;;;;;;;;;;5096956;28;20112;-49
2023/06/05 03:43:05;;;;;;;0.10;0.10;;;;;;;;;;5096894;28;20051;-47
2023/06/05 03:45:31;;;;;;;0.10;0.10;;;;;;;;;;5078506;28;20048;-49
2023/06/05 03:47:59;;;;;;;0.10;0.10;;;;;;;;;;5097757;28;20067;-51
2023/06/05 03:50:25;;;;;;;;;;;;;;;;;;5097618;28;20512;-51
2023/06/05 03:52:52;;;;;;;0.20;0.20;;;;;;;;;;5097390;28;20003;-49
2023/06/05 03:55:18;;;;;;;0.20;0.20;;;;;;;;;;5096314;28;20093;-48
2023/06/05 03:57:44;;;;;;;0.20;0.20;;;;;;;;;;5097166;28;20109;-50
2023/06/05 04:00:10;;;;;;;0.20;0.20;;;;;;;;;;5097079;28;20138;-50
2023/06/05 04:02:36;;;;;;;0.20;0.20;;;;;;;;;;5096880;28;20067;-48
2023/06/05 04:05:03;;;;;;;0.10;0.10;;;;;;;;;;5096982;28;20045;-50
2023/06/05 04:07:29;;;;;;;0.20;0.20;;;;;;;;;;5097099;28;20039;-48
2023/06/05 04:09:55;;;;;;;0.10;0.10;;;;;;;;;;5078742;28;20463;-49
2023/06/05 04:12:20;;;;;;;0.10;0.10;;;;;;;;;;5096838;28;20048;-50
2023/06/05 04:14:46;;;;;;;0.10;0.10;;;;;;;;;;5097139;28;20051;-50
2023/06/05 04:17:13;;;;;;;0.20;0.20;;;;;;;;;;5097055;28;20097;-49
2023/06/05 04:19:39;;;;;;;0.20;0.20;;;;;;;;;;5079126;28;20204;-51
2023/06/05 04:22:05;;;;;;;0.10;0.10;;;;;;;;;;5098301;28;20489;-50
2023/06/05 04:24:31;;;;;;;0.20;0.20;;;;;;;;;;5117319;28;20124;-51
2023/06/05 04:26:57;;;;;;;0.20;0.20;;;;;;;;;;5117159;28;20047;-50
2023/06/05 04:29:23;;;;;;;0.20;0.20;;;;;;;;;;5116853;28;20066;-51
2023/06/05 04:31:49;;;;;;;0.17;0.17;;;;;;;;;;5076056;28;20490;-51
2023/06/05 04:34:14;;;;;;;0.20;0.20;;;;;;;;;;5076136;28;20188;-50
2023/06/05 04:36:40;;;;;;;0.10;0.10;;;;;;;;;;5077055;28;20105;-49
2023/06/05 04:39:14;;;;;;;0.20;0.20;;;;;;;;;;5096992;28;20488;-52
2023/06/05 04:41:44;;;;;;;0.20;0.20;;;;;;;;;;5077970;28;20067;-51
2023/06/05 04:44:12;;;;;;;0.10;0.10;;;;;;;;;;5075478;28;20052;-49
2023/06/05 04:46:39;;;;;;;0.10;0.10;;;;;;;;;;5078847;28;20056;-50
2023/06/05 04:49:06;;;;;;;0.10;0.10;;;;;;;;;;5092909;28;20071;-49
2023/06/05 04:51:33;;;;;;;0.20;0.20;;;;;;;;;;5086670;28;20786;-51
2023/06/05 04:53:59;;;;;;;0.10;0.10;;;;;;;;;;5089262;28;20044;-52
2023/06/05 04:56:25;;;;;;;0.20;0.20;;;;;;;;;;5081242;28;20573;-51
2023/06/05 04:58:52;;;;;;;0.20;0.20;;;;;;;;;;5077429;28;20105;-51
2023/06/05 05:01:17;;;;;;;0.15;0.15;;;;;;;;;;5095822;28;20490;-51
2023/06/05 05:03:44;;;;;;;0.20;0.20;;;;;;;;;;5096371;28;20052;-51
2023/06/05 05:06:10;;;;;;;0.13;0.13;;;;;;;;;;5091029;28;20523;-53
2023/06/05 05:08:36;;;;;;;0.20;0.20;;;;;;;;;;5095935;28;20151;-54
2023/06/05 05:11:02;;;;;;;0.20;0.20;;;;;;;;;;5094789;28;20044;-51
2023/06/05 05:13:27;;;;;;;0.20;0.20;;;;;;;;;;5075330;28;20139;-49
2023/06/05 05:15:53;;;;;;;0.20;0.20;;;;;;;;;;5075163;28;20055;-52
2023/06/05 05:18:18;;;;;;;0.20;0.20;;;;;;;;;;5078699;28;20051;-53
2023/06/05 05:20:45;;;;;;;0.20;0.20;;;;;;;;;;5085587;28;20058;-52
2023/06/05 05:23:10;;;;;;;0.20;0.20;;;;;;;;;;5086614;28;20048;-49
2023/06/05 05:25:37;;;;;;;0.20;0.20;;;;;;;;;;5091741;28;20104;-53
2023/06/05 05:28:03;;;;;;;0.20;0.20;;;;;;;;;;5077240;28;20043;-49
2023/06/05 05:30:30;;;;;;;0.20;0.20;;;;;;;;;;5083501;28;20104;-51
2023/06/05 05:32:56;;;;;;;0.20;0.20;;;;;;;;;;5088829;28;20086;-52
2023/06/05 05:35:22;;;;;;;0.20;0.20;;;;;;;;;;5093752;28;20048;-59
2023/06/05 05:37:47;;;;;;;0.20;0.20;;;;;;;;;;5071302;28;21827;-51
2023/06/05 05:40:13;;;;;;;0.15;0.15;;;;;;;;;;5088828;28;20048;-53
2023/06/05 05:42:39;;;;;;;0.20;0.20;;;;;;;;;;5088469;28;20492;-53
2023/06/05 05:45:04;;;;;;;0.20;0.20;;;;;;;;;;5085214;28;20125;-52
2023/06/05 05:47:30;;;;;;;0.15;0.15;;;;;;;;;;5075833;28;20566;-53
2023/06/05 05:49:55;;;;;;;0.10;0.10;;;;;;;;;;5076352;28;20443;-49
2023/06/05 05:52:22;;;;;;;0.20;0.20;;;;;;;;;;5085831;28;20304;-51
2023/06/05 05:54:48;;;;;;;0.17;0.17;;;;;;;;;;5070254;28;20048;-49
2023/06/05 05:57:13;;;;;;;0.10;0.10;;;;;;;;;;5051383;28;20075;-53
2023/06/05 05:59:41;;;;;;;0.10;0.10;;;;;;;;;;5092438;28;20071;-52
2023/06/05 06:02:09;;;;;;;0.20;0.20;;;;;;;;;;5085286;28;20074;-50
2023/06/05 06:04:34;;;;;;;;;;;;;;;;;;5084962;28;20066;-52
2023/06/05 06:07:00;;;;;;;0.20;0.20;;;;;;;;;;5089359;28;20403;-52
2023/06/05 06:09:26;;;;;;;0.10;0.10;;;;;;;;;;5087302;28;20044;-50
2023/06/05 06:11:55;;;;;;;0.20;0.20;;;;;;;;;;5085406;28;20222;-55
2023/06/05 06:14:21;;;;;;;0.20;0.20;;;;;;;;;;5053591;28;20346;-52
2023/06/05 06:16:47;;;;;;;0.10;0.10;;;;;;;;;;5093035;28;20423;-55
2023/06/05 06:19:14;;;;;;;0.20;0.20;;;;;;;;;;5095995;28;20040;-52
2023/06/05 06:21:40;;;;;;;0.20;0.20;;;;;;;;;;5094697;28;20044;-52
2023/06/05 06:24:05;;;;;;;0.10;0.10;;;;;;;;;;5090960;28;20047;-49
2023/06/05 06:26:31;;;;;;;0.10;0.10;;;;;;;;;;5088378;28;20071;-53
2023/06/05 06:28:59;;;;;;;0.10;0.10;;;;;;;;;;5068840;28;20039;-52
2023/06/05 06:31:24;;;;;;;0.10;0.10;;;;;;;;;;5094050;28;20055;-52
2023/06/05 06:33:50;;;;;;;0.20;0.20;;;;;;;;;;5087369;28;20594;-50
2023/06/05 06:36:17;;;;;;;0.10;0.10;;;;;;;;;;5090673;28;20052;-50
2023/06/05 06:38:43;;;;;;;0.20;0.20;;;;;;;;;;5088662;28;20412;-49
2023/06/05 06:41:09;;;;;;;0.20;0.20;;;;;;;;;;5088290;28;20130;-53
2023/06/05 06:43:35;;;;;;;0.10;0.10;;;;;;;;;;5086273;28;20063;-50
2023/06/05 06:46:00;;;;;;;0.20;0.20;;;;;;;;;;5081011;28;20105;-48
2023/06/05 06:48:26;;;;;;;0.17;0.17;;;;;;;;;;5083193;28;20109;-51
2023/06/05 06:50:52;;;;;;;0.20;0.20;;;;;;;;;;5080666;28;20645;-51
2023/06/05 06:53:18;;;;;;;0.10;0.10;;;;;;;;;;5067622;28;20075;-50
2023/06/05 06:55:44;;;;;;;0.10;0.10;;;;;;;;;;5078487;28;20351;-52
2023/06/05 06:58:09;;;;;;;0.20;0.20;;;;;;;;;;5068759;28;20342;-50
2023/06/05 07:00:35;;;;;;;0.10;0.10;;;;;;;;;;5075747;28;20099;-53
2023/06/05 07:03:02;;;;;;;0.10;0.10;;;;;;;;;;5064983;28;20446;-50
2023/06/05 07:05:27;;;;;;;0.20;0.20;;;;;;;;;;5050471;28;20108;-52
2023/06/05 07:07:53;;;;;;;0.20;0.20;;;;;;;;;;5061296;28;20124;-52
2023/06/05 07:10:19;;;;;;;0.20;0.20;;;;;;;;;;5052706;28;20383;-51
2023/06/05 07:12:44;;;;;;;0.20;0.20;;;;;;;;;;5070231;28;20588;-51
2023/06/05 07:15:10;;;;;;;0.20;0.20;;;;;;;;;;5071948;28;20059;-49
2023/06/05 07:17:35;;;;;;;0.10;0.10;;;;;;;;;;5067871;28;20040;-52
2023/06/05 07:20:02;;;;;;;0.10;0.10;;;;;;;;;;5055898;28;20075;-53
2023/06/05 07:22:29;;;;;;;0.10;0.10;;;;;;;;;;5057736;28;20278;-50
2023/06/05 07:24:54;;;;;;;0.10;0.10;;;;;;;;;;5084037;28;20059;-51
2023/06/05 07:27:20;;;;;;;0.10;0.10;;;;;;;;;;5084697;28;20120;-50
2023/06/05 07:29:46;;;;;;;0.20;0.20;;;;;;;;;;5081809;28;20491;-53
2023/06/05 07:32:15;;;;;;;0.10;0.10;;;;;;;;;;5062694;28;20398;-55
2023/06/05 07:34:42;;;;;;;0.10;0.10;;;;;;;;;;5074787;28;20283;-50
2023/06/05 07:37:07;;;;;;;0.10;0.10;;;;;;;;;;5091203;28;20094;-50
2023/06/05 07:39:33;;;;;;;0.20;0.20;;;;;;;;;;5089826;28;20055;-50
2023/06/05 07:41:58;;;;;;;0.10;0.10;;;;;;;;;;5083154;28;20130;-54
2023/06/05 07:44:24;;;;;;;0.10;0.10;;;;;;;;;;5086853;28;20040;-54
2023/06/05 07:46:50;;;;;;;0.20;0.20;;;;;;;;;;5088955;28;20387;-53
2023/06/05 07:49:16;;;;;;;0.10;0.10;;;;;;;;;;5078254;28;20083;-52
2023/06/05 07:51:42;;;;;;;0.10;0.10;;;;;;;;;;5055473;28;20071;-48
2023/06/05 07:54:09;;;;;;;0.20;0.20;;;;;;;;;;5081021;28;20052;-52
2023/06/05 07:56:34;;;;;;;0.20;0.20;;;;;;;;;;5059398;28;20058;-53
2023/06/05 07:59:02;;;;;;;0.20;0.20;;;;;;;;;;5085684;28;20143;-52
2023/06/05 08:01:29;;;;;;;0.10;0.10;;;;;;;;;;5077710;28;20055;-52
2023/06/05 08:03:55;;;;;;;0.10;0.10;;;;;;;;;;5074859;28;20056;-49
2023/06/05 08:06:24;;;;;;;0.20;0.20;;;;;;;;;;5080533;28;20048;-51
2023/06/05 08:08:50;;;;;;;0.10;0.10;;;;;;;;;;5058564;28;20046;-52
2023/06/05 08:11:16;;;;;;;0.10;0.10;;;;;;;;;;5077232;28;20157;-52
2023/06/05 08:13:42;;;;;;;0.15;0.15;;;;;;;;;;5080410;28;20044;-51
2023/06/05 08:16:07;;;;;;;0.20;0.20;;;;;;;;;;5083403;28;20075;-52
2023/06/05 08:18:33;;;;;;;0.20;0.20;;;;;;;;;;5075698;28;20519;-53
2023/06/05 08:20:58;;;;;;;0.20;0.20;;;;;;;;;;5062493;28;20115;-52
2023/06/05 08:23:24;;;;;;;0.20;0.20;;;;;;;;;;5068011;28;20044;-54
2023/06/05 08:25:50;;;;;;;0.10;0.10;;;;;;;;;;5074534;28;20376;-55
2023/06/05 08:28:16;;;;;;;0.20;0.20;;;;;;;;;;5075958;28;20056;-56
2023/06/05 08:30:41;;;;;;;0.20;0.20;;;;;;;;;;5081396;28;20043;-53
2023/06/05 08:33:07;;;;;;;0.17;0.17;;;;;;;;;;5076504;28;20158;-54
2023/06/05 08:35:33;;;;;;;0.20;0.20;;;;;;;;;;5068669;28;20472;-52
2023/06/05 08:37:58;;;;;;;0.20;0.20;;;;;;;;;;5066973;28;20048;-53
2023/06/05 08:40:28;;;;;;;0.20;0.20;;;;;;;;;;5075493;28;20071;-55
2023/06/05 08:42:54;;;;;;;0.20;0.20;;;;;;;;;;5054780;28;20054;-55
2023/06/05 08:45:19;;;;;;;0.20;0.20;;;;;;;;;;5075504;28;20047;-58
2023/06/05 08:47:47;;;;;;;0.20;0.20;;;;;;;;;;5076033;28;20952;-56
2023/06/05 08:50:12;;;;;;;0.20;0.20;;;;;;;;;;5081767;28;20052;-55
2023/06/05 08:52:38;;;;;;;0.20;0.20;;;;;;;;;;5079075;28;20059;-55
2023/06/05 08:55:05;;;;;;;0.20;0.20;;;;;;;;;;5085797;28;20036;-58
2023/06/05 08:57:32;;;;;;;0.13;0.13;;;;;;;;;;5071333;28;20129;-49
2023/06/05 08:59:59;;;;;;;0.10;0.10;;;;;;;;;;5076896;28;20055;-50
2023/06/05 09:02:24;;;;;;;0.20;0.20;;;;;;;;;;5079622;28;20724;-52
2023/06/05 09:04:51;;;;;;;0.10;0.10;;;;;;;;;;5083244;28;20053;-54
2023/06/05 09:07:16;;;;;;;0.20;0.20;;;;;;;;;;5086023;28;20059;-53
2023/06/05 09:09:42;;;;;;;0.20;0.20;;;;;;;;;;5081784;28;20044;-52
2023/06/05 09:12:08;;;;;;;0.20;0.20;;;;;;;;;;5075225;28;20584;-49
2023/06/05 09:14:35;;;;;;;0.20;0.20;;;;;;;;;;5082143;28;20047;-53
2023/06/05 09:17:01;;;;;;;0.20;0.20;;;;;;;;;;5066074;28;20047;-52
2023/06/05 09:19:43;;;;;;;0.20;0.20;;;;;;;;;;5083613;28;20051;-55
2023/06/05 09:22:09;;;;;;;0.20;0.20;;;;;;;;;;5086916;28;20047;-49
2023/06/05 09:24:36;;;;;;;0.20;0.20;;;;;;;;;;5080009;28;20047;-50
2023/06/05 09:27:05;;;;;;;0.20;0.20;;;;;;;;;;5058725;28;20075;-53
2023/06/05 09:29:32;;;;;;;0.10;0.10;;;;;;;;;;5076084;28;20738;-52
2023/06/05 09:31:59;;;;;;;0.15;0.15;;;;;;;;;;5059323;28;20422;-49
2023/06/05 09:34:30;;;;;;;0.20;0.20;;;;;;;;;;5078705;28;20113;-54
2023/06/05 09:36:58;;;;;;;0.20;0.20;;;;;;;;;;5068226;28;20143;-51
2023/06/05 09:39:26;;;;;;;0.10;0.10;;;;;;;;;;5071838;28;20044;-51
2023/06/05 09:41:51;;;;;;;0.20;0.20;;;;;;;;;;5061291;28;20513;-50
2023/06/05 09:44:18;;;;;;;0.20;0.20;;;;;;;;;;5064081;28;20048;-50
2023/06/05 09:47:05;;;;;;;0.20;0.20;;;;;;;;;;5077457;28;20066;-51
2023/06/05 09:49:32;;;;;;;0.10;0.10;;;;;;;;;;5065556;28;20071;-49
2023/06/05 09:51:58;;;;;;;0.20;0.20;;;;;;;;;;5079524;28;20059;-47
2023/06/05 09:54:25;;;;;;;0.20;0.20;;;;;;;;;;5081292;28;20106;-53
2023/06/05 09:56:52;;;;;;;0.20;0.20;;;;;;;;;;5079221;28;21421;-53
2023/06/05 09:59:21;;;;;;;0.20;0.20;;;;;;;;;;5081117;28;21629;-53
2023/06/05 10:01:48;;;;;;;0.20;0.20;;;;;;;;;;5060252;28;20120;-52
2023/06/05 10:04:16;;;;;;;0.20;0.20;;;;;;;;;;5067999;28;20040;-51
2023/06/05 10:06:42;;;;;;;0.10;0.10;;;;;;;;;;5084286;28;20209;-52
2023/06/05 10:09:09;;;;;;;0.20;0.20;;;;;;;;;;5084571;28;20059;-51
2023/06/05 10:11:35;;;;;;;0.20;0.20;;;;;;;;;;5073559;28;20747;-50
2023/06/05 10:14:02;;;;;;;0.20;0.20;;;;;;;;;;5078686;28;20040;-50
2023/06/05 10:16:28;;;;;;;0.20;0.20;;;;;;;;;;5054780;28;20075;-50
2023/06/05 10:18:56;;;;;;;0.20;0.20;;;;;;;;;;5085364;28;20050;-52
2023/06/05 10:21:22;;;;;;;0.20;0.20;;;;;;;;;;5080508;28;20384;-55
2023/06/05 10:23:49;;;;;;;0.10;0.10;;;;;;;;;;5065146;28;20792;-50
2023/06/05 10:26:22;;;;;;;0.20;0.20;;;;;;;;;;5079799;28;20044;-48
2023/06/05 10:28:58;;;;;;;0.20;0.20;;;;;;;;;;5080708;28;20056;-51
2023/06/05 10:31:32;;;;;;;0.10;0.10;;;;;;;;;;5082967;28;20465;-55
2023/06/05 10:34:03;;;;;;;0.10;0.10;;;;;;;;;;5086042;28;20035;-54
2023/06/05 10:36:44;;;;;;;0.20;0.20;;;;;;;;;;5079831;28;20143;-54
2023/06/05 10:39:11;;;;;;;0.20;0.20;;;;;;;;;;5073727;28;20036;-52
2023/06/05 10:41:37;;;;;;;0.20;0.20;;;;;;;;;;5048100;28;20197;-51
2023/06/05 10:44:02;;;;;;;0.17;0.17;;;;;;;;;;5068351;28;20067;-52
2023/06/05 10:46:31;;;;;;;0.20;0.20;;;;;;;;;;5072771;28;20241;-51
2023/06/05 10:51:43;;;;;;;0.10;0.10;;;;;;;;;;5149875;27;20332;-51
2023/06/05 10:54:10;;;;;;;0.10;0.10;;;;;;;;;;5125177;27;21040;-52
2023/06/05 10:59:26;;;;;;;0.20;0.20;;;;;;;;;;5148663;27;20198;-49
2023/06/05 11:02:14;;;;;;;0.20;0.20;;;;;;;;;;5117167;27;20049;-50
2023/06/05 11:07:20;;;;;;;0.20;0.20;;;;;;;;;;5138244;27;20072;-52
2023/06/05 11:10:05;;;;;;;0.20;0.20;;;;;;;;;;5101746;27;20061;-51
2023/06/05 11:15:11;;;;;;;0.20;0.20;;;;;;;;;;5133119;27;20150;-48
2023/06/05 11:17:39;;;;;;;0.10;0.10;;;;;;;;;;5114825;27;20043;-49
2023/06/05 11:20:06;;;;;;;0.20;0.20;;;;;;;;;;5110727;27;20263;-52
2023/06/05 11:22:32;;;;;;;0.10;0.10;;;;;;;;;;5099513;27;20079;-52
2023/06/05 11:25:18;;;;;;;0.10;0.10;;;;;;;;;;5091588;27;20330;-49
2023/06/05 11:27:44;;;;;;;0.10;0.10;;;;;;;;;;5067677;28;20054;-48
2023/06/05 11:30:13;;;;;;;0.20;0.20;;;;;;;;;;5086065;28;20100;-51
2023/06/05 11:32:39;;;;;;;0.20;0.20;;;;;;;;;;5078161;28;20051;-52
2023/06/05 11:35:05;;;;;;;0.20;0.20;;;;;;;;;;5100979;27;20680;-60
2023/06/05 11:37:34;;;;;;;0.10;0.10;;;;;;;;;;5099799;28;20583;-52
2023/06/05 11:40:04;;;;;;;0.20;0.20;;;;;;;;;;5058682;28;20043;-52
2023/06/05 11:42:30;;;;;;;0.10;0.10;;;;;;;;;;5079011;28;20898;-52
2023/06/05 11:44:56;;;;;;;0.20;0.20;;;;;;;;;;5096608;27;20139;-53
2023/06/05 11:47:21;;;;;;;0.20;0.20;;;;;;;;;;5094549;27;20043;-52
2023/06/05 11:49:47;;;;;;;0.20;0.20;;;;;;;;;;5097573;27;20085;-55
2023/06/05 11:52:18;;;;;;;0.20;0.20;;;;;;;;;;5081275;27;20585;-54
2023/06/05 11:54:52;;;;;;;0.20;0.20;;;;;;;;;;5082142;28;20047;-54
2023/06/05 11:57:18;;;;;;;0.20;0.20;;;;;;;;;;5095030;27;20054;-55
2023/06/05 11:59:44;;;;;;;0.10;0.10;;;;;;;;;;5080407;27;20165;-54
2023/06/05 12:02:10;;;;;;;0.20;0.20;;;;;;;;;;5100856;27;20043;-55
2023/06/05 12:04:40;;;;;;;0.20;0.20;;;;;;;;;;5102185;27;20054;-55
2023/06/05 12:07:05;;;;;;;0.20;0.20;;;;;;;;;;5104804;28;20101;-54
2023/06/05 12:09:31;;;;;;;0.20;0.20;;;;;;;;;;5103047;27;20457;-53
2023/06/05 12:12:05;;;;;;;0.20;0.20;;;;;;;;;;5098159;27;20083;-55
2023/06/05 12:14:32;;;;;;;0.20;0.20;;;;;;;;;;5100803;27;20078;-54
2023/06/05 12:16:57;;;;;;;0.20;0.20;;;;;;;;;;5099884;27;20050;-52
2023/06/05 12:19:26;;;;;;;0.10;0.10;;;;;;;;;;5094949;27;20440;-50
2023/06/05 12:22:01;;;;;;;0.28;0.28;;;;;;;;;;5097092;27;20652;-50
2023/06/05 12:24:26;;;;;;;0.20;0.20;;;;;;;;;;5083352;28;20044;-52
2023/06/05 12:26:54;;;;;;;0.20;0.20;;;;;;;;;;5086176;28;20518;-55
2023/06/05 12:29:22;;;;;;;0.20;0.20;;;;;;;;;;5084779;28;20047;-54
2023/06/05 12:31:48;;;;;;;0.20;0.20;;;;;;;;;;5078072;28;20044;-54
2023/06/05 12:34:15;;;;;;;0.20;0.20;;;;;;;;;;5076169;28;20052;-56
2023/06/05 12:36:42;;;;;;;0.20;0.20;;;;;;;;;;5075158;28;20055;-56
2023/06/05 12:39:12;;;;;;;0.20;0.20;;;;;;;;;;5081433;28;20075;-57
2023/06/05 12:41:39;;;;;;;0.20;0.20;;;;;;;;;;5081790;28;20626;-56
2023/06/05 12:44:06;;;;;;;0.20;0.20;;;;;;;;;;5066923;28;20075;-56
2023/06/05 12:46:32;;;;;;;0.20;0.20;;;;;;;;;;5091267;28;20052;-56
2023/06/05 12:48:58;;;;;;;0.10;0.10;;;;;;;;;;5081723;28;20054;-51
2023/06/05 12:51:26;;;;;;;0.20;0.20;;;;;;;;;;5088713;28;20058;-56
2023/06/05 12:53:52;;;;;;;0.20;0.20;;;;;;;;;;5086657;28;20032;-57
2023/06/05 12:56:18;;;;;;;0.15;0.15;;;;;;;;;;5084763;28;20343;-55
2023/06/05 12:58:43;;;;;;;0.20;0.20;;;;;;;;;;5085219;28;20519;-56
2023/06/05 13:01:09;;;;;;;0.20;0.20;;;;;;;;;;5084479;28;20055;-57
2023/06/05 13:03:36;;;;;;;0.10;0.10;;;;;;;;;;5085344;28;20044;-56
2023/06/05 13:06:02;;;;;;;0.20;0.20;;;;;;;;;;5086912;28;20047;-57
2023/06/05 13:08:27;;;;;;;0.20;0.20;;;;;;;;;;5083845;28;20139;-56
2023/06/05 13:10:53;;;;;;;0.20;0.20;;;;;;;;;;5086314;28;20043;-54
2023/06/05 13:13:19;;;;;;;0.20;0.20;;;;;;;;;;5095250;28;20200;-55
2023/06/05 13:15:45;;;;;;;0.20;0.20;;;;;;;;;;5092954;28;20044;-56
2023/06/05 13:18:10;;;;;;;0.17;0.17;;;;;;;;;;5099746;28;20120;-56
2023/06/05 13:20:36;;;;;;;0.20;0.20;;;;;;;;;;5094639;28;20130;-56
2023/06/05 13:23:01;;;;;;;0.20;0.20;;;;;;;;;;5093713;28;20059;-56
2023/06/05 13:25:27;;;;;;;0.20;0.20;;;;;;;;;;5087754;28;20047;-57
2023/06/05 13:27:52;;;;;;;0.20;0.20;;;;;;;;;;5095719;28;20039;-56
2023/06/05 13:30:18;;;;;;;0.20;0.20;;;;;;;;;;5077564;28;20059;-57
2023/06/05 13:32:45;;;;;;;0.20;0.20;;;;;;;;;;5080813;28;20060;-56
2023/06/05 13:35:11;;;;;;;0.13;0.13;;;;;;;;;;5074732;28;20649;-56
2023/06/05 13:37:37;;;;;;;0.20;0.20;;;;;;;;;;5085724;28;20101;-56
2023/06/05 13:40:06;;;;;;;0.20;0.20;;;;;;;;;;5066011;28;20063;-55
2023/06/05 13:42:32;;;;;;;0.20;0.20;;;;;;;;;;5086859;28;20324;-56
2023/06/05 13:44:58;;;;;;;0.20;0.20;;;;;;;;;;5086103;28;20480;-55
2023/06/05 13:47:23;;;;;;;0.20;0.20;;;;;;;;;;5093163;28;20074;-56
2023/06/05 13:49:49;;;;;;;0.20;0.20;;;;;;;;;;5090251;28;20348;-56
2023/06/05 13:52:14;;;;;;;0.10;0.10;;;;;;;;;;5088156;28;20241;-55
2023/06/05 13:54:41;;;;;;;0.20;0.20;;;;;;;;;;5085582;28;20500;-55
2023/06/05 13:57:07;;;;;;;0.20;0.20;;;;;;;;;;5091049;28;20039;-55
2023/06/05 13:59:32;;;;;;;0.20;0.20;;;;;;;;;;5072020;28;20501;-54
2023/06/05 14:01:58;;;;;;;0.20;0.20;;;;;;;;;;5093966;28;20051;-56
2023/06/05 14:04:23;;;;;;;0.20;0.20;;;;;;;;;;5101514;28;20392;-55
2023/06/05 14:06:49;;;;;;;0.10;0.10;;;;;;;;;;5089027;28;20481;-55
2023/06/05 14:09:15;;;;;;;0.20;0.20;;;;;;;;;;5084950;28;20052;-56
2023/06/05 14:11:44;;;;;;;0.20;0.20;;;;;;;;;;5083198;28;20078;-54
2023/06/05 14:14:10;;;;;;;0.10;0.10;;;;;;;;;;5095169;28;20066;-55
2023/06/05 14:16:36;;;;;;;0.20;0.20;;;;;;;;;;5087135;28;20145;-55
2023/06/05 14:19:02;;;;;;;0.20;0.20;;;;;;;;;;5092060;28;20597;-54
2023/06/05 14:21:27;;;;;;;0.10;0.10;;;;;;;;;;5092393;28;20094;-56
2023/06/05 14:23:53;;;;;;;0.20;0.20;;;;;;;;;;5092854;28;20039;-55
2023/06/05 14:26:18;;;;;;;0.20;0.20;;;;;;;;;;5091918;28;20972;-54
2023/06/05 14:28:44;;;;;;;0.20;0.20;;;;;;;;;;5083453;28;20048;-55
2023/06/05 14:31:09;;;;;;;0.10;0.10;;;;;;;;;;5076294;28;20473;-56
2023/06/05 14:33:35;;;;;;;0.10;0.10;;;;;;;;;;5079390;28;20052;-52
2023/06/05 14:36:00;;;;;;;0.10;0.10;;;;;;;;;;5091952;28;20050;-55
2023/06/05 14:38:26;;;;;;;0.10;0.10;;;;;;;;;;5112093;28;20146;-54
2023/06/05 14:40:52;;;;;;;0.20;0.20;;;;;;;;;;5100187;28;20065;-55
2023/06/05 14:43:18;;;;;;;0.20;0.20;;;;;;;;;;5093003;28;20044;-56
2023/06/05 14:45:44;;;;;;;0.20;0.20;;;;;;;;;;5093895;28;20443;-55
2023/06/05 14:48:10;;;;;;;0.20;0.20;;;;;;;;;;5092167;28;20476;-55
2023/06/05 14:50:36;;;;;;;0.20;0.20;;;;;;;;;;5093110;28;20562;-55